sensor_id;sensor_type;location;lat;lon;timestamp;P1;durP1;ratioP1;P2;durP2;ratioP2
71083;SDS011;58741;52.672;13.548;2023-04-03T00:01:30;0.43;;;0.32;;
71083;SDS011;58741;52.672;13.548;2023-04-03T00:03:56;1.52;;;0.68;;
71083;SDS011;58741;52.672;13.548;2023-04-03T00:06:22;1.77;;;0.60;;
71083;SDS011;58741;52.672;13.548;2023-04-03T00:08:48;0.57;;;0.57;;
71083;SDS011;58741;52.672;13.548;2023-04-03T00:11:15;2.67;;;0.60;;
71083;SDS011;58741;52.672;13.548;2023-04-03T00:13:41;1.05;;;0.65;;
71083;SDS011;58741;52.672;13.548;2023-04-03T00:16:07;0.30;;;0.30;;
71083;SDS011;58741;52.672;13.548;2023-04-03T00:18:35;2.03;;;0.55;;
71083;SDS011;58741;52.672;13.548;2023-04-03T00:21:01;0.40;;;0.40;;
71083;SDS011;58741;52.672;13.548;2023-04-03T00:23:27;2.17;;;0.60;;
71083;SDS011;58741;52.672;13.548;2023-04-03T00:25:52;1.20;;;0.60;;
71083;SDS011;58741;52.672;13.548;2023-04-03T00:28:18;1.33;;;0.47;;
71083;SDS011;58741;52.672;13.548;2023-04-03T00:30:44;0.50;;;0.45;;
71083;SDS011;58741;52.672;13.548;2023-04-03T00:33:13;0.47;;;0.47;;
71083;SDS011;58741;52.672;13.548;2023-04-03T00:35:39;0.60;;;0.43;;
71083;SDS011;58741;52.672;13.548;2023-04-03T00:38:05;1.20;;;0.47;;
71083;SDS011;58741;52.672;13.548;2023-04-03T00:40:37;2.60;;;0.63;;
71083;SDS011;58741;52.672;13.548;2023-04-03T00:43:16;0.65;;;0.50;;
71083;SDS011;58741;52.672;13.548;2023-04-03T00:45:53;2.17;;;0.70;;
71083;SDS011;58741;52.672;13.548;2023-04-03T00:48:34;0.22;;;0.22;;
71083;SDS011;58741;52.672;13.548;2023-04-03T00:51:23;1.90;;;0.57;;
71083;SDS011;58741;52.672;13.548;2023-04-03T00:53:54;1.10;;;0.40;;
71083;SDS011;58741;52.672;13.548;2023-04-03T00:56:27;1.52;;;0.43;;
71083;SDS011;58741;52.672;13.548;2023-04-03T00:58:56;1.30;;;0.60;;
71083;SDS011;58741;52.672;13.548;2023-04-03T01:01:29;1.02;;;0.40;;
71083;SDS011;58741;52.672;13.548;2023-04-03T01:03:55;0.40;;;0.40;;
71083;SDS011;58741;52.672;13.548;2023-04-03T01:06:26;0.98;;;0.43;;
71083;SDS011;58741;52.672;13.548;2023-04-03T01:08:58;2.92;;;0.57;;
71083;SDS011;58741;52.672;13.548;2023-04-03T01:11:25;1.98;;;0.68;;
71083;SDS011;58741;52.672;13.548;2023-04-03T01:13:52;0.50;;;0.40;;
71083;SDS011;58741;52.672;13.548;2023-04-03T01:16:18;5.82;;;0.80;;
71083;SDS011;58741;52.672;13.548;2023-04-03T01:18:45;1.63;;;0.90;;
71083;SDS011;58741;52.672;13.548;2023-04-03T01:21:21;7.60;;;1.15;;
71083;SDS011;58741;52.672;13.548;2023-04-03T01:26:31;0.32;;;0.32;;
71083;SDS011;58741;52.672;13.548;2023-04-03T01:28:58;2.58;;;0.65;;
71083;SDS011;58741;52.672;13.548;2023-04-03T01:33:54;0.52;;;0.38;;
71083;SDS011;58741;52.672;13.548;2023-04-03T01:36:24;0.38;;;0.38;;
71083;SDS011;58741;52.672;13.548;2023-04-03T01:38:53;0.50;;;0.50;;
71083;SDS011;58741;52.672;13.548;2023-04-03T01:41:19;0.32;;;0.32;;
71083;SDS011;58741;52.672;13.548;2023-04-03T01:43:46;0.25;;;0.25;;
71083;SDS011;58741;52.672;13.548;2023-04-03T01:46:13;0.30;;;0.30;;
71083;SDS011;58741;52.672;13.548;2023-04-03T01:50:50;1.00;;;0.40;;
71083;SDS011;58741;52.672;13.548;2023-04-03T01:53:17;1.27;;;0.43;;
71083;SDS011;58741;52.672;13.548;2023-04-03T01:55:43;0.40;;;0.40;;
71083;SDS011;58741;52.672;13.548;2023-04-03T01:58:08;3.70;;;0.60;;
71083;SDS011;58741;52.672;13.548;2023-04-03T02:00:34;0.77;;;0.38;;
71083;SDS011;58741;52.672;13.548;2023-04-03T02:03:01;1.27;;;0.35;;
71083;SDS011;58741;52.672;13.548;2023-04-03T02:05:27;0.50;;;0.50;;
71083;SDS011;58741;52.672;13.548;2023-04-03T02:07:53;0.70;;;0.55;;
71083;SDS011;58741;52.672;13.548;2023-04-03T02:12:30;0.20;;;0.20;;
71083;SDS011;58741;52.672;13.548;2023-04-03T02:14:57;0.47;;;0.47;;
71083;SDS011;58741;52.672;13.548;2023-04-03T02:17:22;0.73;;;0.50;;
71083;SDS011;58741;52.672;13.548;2023-04-03T02:19:48;0.65;;;0.50;;
71083;SDS011;58741;52.672;13.548;2023-04-03T02:22:13;0.30;;;0.30;;
71083;SDS011;58741;52.672;13.548;2023-04-03T02:24:39;0.90;;;0.52;;
71083;SDS011;58741;52.672;13.548;2023-04-03T02:27:05;2.20;;;0.65;;
71083;SDS011;58741;52.672;13.548;2023-04-03T02:29:30;0.60;;;0.45;;
71083;SDS011;58741;52.672;13.548;2023-04-03T02:31:56;0.32;;;0.32;;
71083;SDS011;58741;52.672;13.548;2023-04-03T02:34:23;1.30;;;0.50;;
71083;SDS011;58741;52.672;13.548;2023-04-03T02:36:50;0.88;;;0.50;;
71083;SDS011;58741;52.672;13.548;2023-04-03T02:39:18;0.20;;;0.20;;
71083;SDS011;58741;52.672;13.548;2023-04-03T02:41:43;0.25;;;0.25;;
71083;SDS011;58741;52.672;13.548;2023-04-03T02:44:14;0.22;;;0.22;;
71083;SDS011;58741;52.672;13.548;2023-04-03T02:46:40;0.73;;;0.35;;
71083;SDS011;58741;52.672;13.548;2023-04-03T02:49:06;0.47;;;0.47;;
71083;SDS011;58741;52.672;13.548;2023-04-03T02:51:31;0.65;;;0.40;;
71083;SDS011;58741;52.672;13.548;2023-04-03T02:53:58;0.77;;;0.60;;
71083;SDS011;58741;52.672;13.548;2023-04-03T02:56:27;0.60;;;0.50;;
71083;SDS011;58741;52.672;13.548;2023-04-03T02:58:53;0.40;;;0.40;;
71083;SDS011;58741;52.672;13.548;2023-04-03T03:01:19;0.75;;;0.40;;
71083;SDS011;58741;52.672;13.548;2023-04-03T03:03:45;0.43;;;0.43;;
71083;SDS011;58741;52.672;13.548;2023-04-03T03:06:11;0.32;;;0.30;;
71083;SDS011;58741;52.672;13.548;2023-04-03T03:08:38;2.40;;;0.43;;
71083;SDS011;58741;52.672;13.548;2023-04-03T03:11:05;0.75;;;0.32;;
71083;SDS011;58741;52.672;13.548;2023-04-03T03:13:32;0.40;;;0.35;;
71083;SDS011;58741;52.672;13.548;2023-04-03T03:15:58;0.63;;;0.45;;
71083;SDS011;58741;52.672;13.548;2023-04-03T03:18:24;0.47;;;0.40;;
71083;SDS011;58741;52.672;13.548;2023-04-03T03:20:53;0.95;;;0.60;;
71083;SDS011;58741;52.672;13.548;2023-04-03T03:23:21;2.15;;;0.75;;
71083;SDS011;58741;52.672;13.548;2023-04-03T03:25:48;0.35;;;0.35;;
71083;SDS011;58741;52.672;13.548;2023-04-03T03:28:14;0.50;;;0.30;;
71083;SDS011;58741;52.672;13.548;2023-04-03T03:30:39;0.35;;;0.32;;
71083;SDS011;58741;52.672;13.548;2023-04-03T03:33:05;0.40;;;0.38;;
71083;SDS011;58741;52.672;13.548;2023-04-03T03:35:31;0.85;;;0.45;;
71083;SDS011;58741;52.672;13.548;2023-04-03T03:37:56;0.65;;;0.35;;
71083;SDS011;58741;52.672;13.548;2023-04-03T03:40:22;0.65;;;0.40;;
71083;SDS011;58741;52.672;13.548;2023-04-03T03:42:47;1.05;;;0.40;;
71083;SDS011;58741;52.672;13.548;2023-04-03T03:45:13;0.40;;;0.30;;
71083;SDS011;58741;52.672;13.548;2023-04-03T03:47:40;0.52;;;0.52;;
71083;SDS011;58741;52.672;13.548;2023-04-03T03:56:39;2.92;;;0.65;;
71083;SDS011;58741;52.672;13.548;2023-04-03T04:01:16;0.70;;;0.57;;
71083;SDS011;58741;52.672;13.548;2023-04-03T04:03:46;1.17;;;0.73;;
71083;SDS011;58741;52.672;13.548;2023-04-03T04:06:16;0.60;;;0.38;;
71083;SDS011;58741;52.672;13.548;2023-04-03T04:08:42;0.40;;;0.40;;
71083;SDS011;58741;52.672;13.548;2023-04-03T04:11:10;0.20;;;0.20;;
71083;SDS011;58741;52.672;13.548;2023-04-03T04:13:36;0.47;;;0.47;;
71083;SDS011;58741;52.672;13.548;2023-04-03T04:16:03;0.28;;;0.28;;
71083;SDS011;58741;52.672;13.548;2023-04-03T04:18:30;0.45;;;0.30;;
71083;SDS011;58741;52.672;13.548;2023-04-03T04:20:56;0.43;;;0.43;;
71083;SDS011;58741;52.672;13.548;2023-04-03T04:23:22;2.95;;;0.60;;
71083;SDS011;58741;52.672;13.548;2023-04-03T04:25:49;0.43;;;0.40;;
71083;SDS011;58741;52.672;13.548;2023-04-03T04:28:15;0.47;;;0.35;;
71083;SDS011;58741;52.672;13.548;2023-04-03T04:30:42;2.83;;;0.45;;
71083;SDS011;58741;52.672;13.548;2023-04-03T04:33:09;0.28;;;0.28;;
71083;SDS011;58741;52.672;13.548;2023-04-03T04:35:35;1.10;;;0.57;;
71083;SDS011;58741;52.672;13.548;2023-04-03T04:38:01;0.60;;;0.52;;
71083;SDS011;58741;52.672;13.548;2023-04-03T04:40:28;0.50;;;0.50;;
71083;SDS011;58741;52.672;13.548;2023-04-03T04:42:54;0.35;;;0.30;;
71083;SDS011;58741;52.672;13.548;2023-04-03T04:45:20;0.38;;;0.30;;
71083;SDS011;58741;52.672;13.548;2023-04-03T04:47:46;0.63;;;0.32;;
71083;SDS011;58741;52.672;13.548;2023-04-03T04:50:12;0.32;;;0.30;;
71083;SDS011;58741;52.672;13.548;2023-04-03T04:52:38;1.33;;;0.40;;
71083;SDS011;58741;52.672;13.548;2023-04-03T04:55:06;0.35;;;0.35;;
71083;SDS011;58741;52.672;13.548;2023-04-03T04:57:32;0.35;;;0.35;;
71083;SDS011;58741;52.672;13.548;2023-04-03T04:59:58;0.30;;;0.30;;
71083;SDS011;58741;52.672;13.548;2023-04-03T05:02:24;0.80;;;0.60;;
71083;SDS011;58741;52.672;13.548;2023-04-03T05:04:50;0.55;;;0.52;;
71083;SDS011;58741;52.672;13.548;2023-04-03T05:07:20;4.20;;;0.60;;
71083;SDS011;58741;52.672;13.548;2023-04-03T05:09:46;0.30;;;0.30;;
71083;SDS011;58741;52.672;13.548;2023-04-03T05:12:13;1.65;;;0.52;;
71083;SDS011;58741;52.672;13.548;2023-04-03T05:14:45;0.45;;;0.45;;
71083;SDS011;58741;52.672;13.548;2023-04-03T05:17:11;0.85;;;0.30;;
71083;SDS011;58741;52.672;13.548;2023-04-03T05:19:40;4.70;;;0.75;;
71083;SDS011;58741;52.672;13.548;2023-04-03T05:22:07;0.40;;;0.40;;
71083;SDS011;58741;52.672;13.548;2023-04-03T05:24:34;0.85;;;0.35;;
71083;SDS011;58741;52.672;13.548;2023-04-03T05:27:00;0.40;;;0.30;;
71083;SDS011;58741;52.672;13.548;2023-04-03T05:29:26;0.55;;;0.52;;
71083;SDS011;58741;52.672;13.548;2023-04-03T05:31:53;1.20;;;0.45;;
71083;SDS011;58741;52.672;13.548;2023-04-03T05:34:18;0.20;;;0.20;;
71083;SDS011;58741;52.672;13.548;2023-04-03T05:36:46;0.47;;;0.38;;
71083;SDS011;58741;52.672;13.548;2023-04-03T05:39:14;0.55;;;0.45;;
71083;SDS011;58741;52.672;13.548;2023-04-03T05:41:42;0.30;;;0.30;;
71083;SDS011;58741;52.672;13.548;2023-04-03T05:44:07;0.20;;;0.20;;
71083;SDS011;58741;52.672;13.548;2023-04-03T05:46:33;0.52;;;0.38;;
71083;SDS011;58741;52.672;13.548;2023-04-03T05:49:02;0.30;;;0.30;;
71083;SDS011;58741;52.672;13.548;2023-04-03T05:51:32;1.20;;;0.40;;
71083;SDS011;58741;52.672;13.548;2023-04-03T05:56:40;0.88;;;0.43;;
71083;SDS011;58741;52.672;13.548;2023-04-03T05:59:05;1.08;;;0.52;;
71083;SDS011;58741;52.672;13.548;2023-04-03T06:01:32;0.70;;;0.32;;
71083;SDS011;58741;52.672;13.548;2023-04-03T06:03:59;0.25;;;0.25;;
71083;SDS011;58741;52.672;13.548;2023-04-03T06:06:25;0.30;;;0.30;;
71083;SDS011;58741;52.672;13.548;2023-04-03T06:08:51;0.40;;;0.40;;
71083;SDS011;58741;52.672;13.548;2023-04-03T06:11:17;1.17;;;0.40;;
71083;SDS011;58741;52.672;13.548;2023-04-03T06:13:42;0.20;;;0.20;;
71083;SDS011;58741;52.672;13.548;2023-04-03T06:18:20;0.20;;;0.20;;
71083;SDS011;58741;52.672;13.548;2023-04-03T06:20:45;0.35;;;0.30;;
71083;SDS011;58741;52.672;13.548;2023-04-03T06:25:23;0.52;;;0.35;;
71083;SDS011;58741;52.672;13.548;2023-04-03T06:27:48;0.20;;;0.20;;
71083;SDS011;58741;52.672;13.548;2023-04-03T06:30:14;0.75;;;0.30;;
71083;SDS011;58741;52.672;13.548;2023-04-03T06:32:40;0.63;;;0.40;;
71083;SDS011;58741;52.672;13.548;2023-04-03T06:35:05;1.45;;;0.55;;
71083;SDS011;58741;52.672;13.548;2023-04-03T06:37:31;0.98;;;0.40;;
71083;SDS011;58741;52.672;13.548;2023-04-03T06:39:58;1.17;;;0.45;;
71083;SDS011;58741;52.672;13.548;2023-04-03T06:42:25;0.28;;;0.28;;
71083;SDS011;58741;52.672;13.548;2023-04-03T06:44:57;0.98;;;0.52;;
71083;SDS011;58741;52.672;13.548;2023-04-03T06:47:23;0.40;;;0.40;;
71083;SDS011;58741;52.672;13.548;2023-04-03T06:49:48;0.65;;;0.30;;
71083;SDS011;58741;52.672;13.548;2023-04-03T06:52:14;0.50;;;0.40;;
71083;SDS011;58741;52.672;13.548;2023-04-03T06:54:40;0.82;;;0.47;;
71083;SDS011;58741;52.672;13.548;2023-04-03T06:57:06;2.92;;;0.30;;
71083;SDS011;58741;52.672;13.548;2023-04-03T06:59:31;0.35;;;0.30;;
71083;SDS011;58741;52.672;13.548;2023-04-03T07:01:57;1.02;;;0.43;;
71083;SDS011;58741;52.672;13.548;2023-04-03T07:04:24;0.85;;;0.80;;
71083;SDS011;58741;52.672;13.548;2023-04-03T07:06:50;0.65;;;0.52;;
71083;SDS011;58741;52.672;13.548;2023-04-03T07:09:17;0.20;;;0.20;;
71083;SDS011;58741;52.672;13.548;2023-04-03T07:11:43;3.08;;;0.70;;
71083;SDS011;58741;52.672;13.548;2023-04-03T07:14:09;0.30;;;0.30;;
71083;SDS011;58741;52.672;13.548;2023-04-03T07:16:35;0.68;;;0.50;;
71083;SDS011;58741;52.672;13.548;2023-04-03T07:19:01;3.92;;;0.50;;
71083;SDS011;58741;52.672;13.548;2023-04-03T07:21:27;0.80;;;0.40;;
71083;SDS011;58741;52.672;13.548;2023-04-03T07:23:53;0.75;;;0.63;;
71083;SDS011;58741;52.672;13.548;2023-04-03T07:26:19;2.22;;;0.50;;
71083;SDS011;58741;52.672;13.548;2023-04-03T07:28:46;0.28;;;0.28;;
71083;SDS011;58741;52.672;13.548;2023-04-03T07:31:14;0.30;;;0.28;;
71083;SDS011;58741;52.672;13.548;2023-04-03T07:33:40;1.10;;;0.50;;
71083;SDS011;58741;52.672;13.548;2023-04-03T07:36:06;0.90;;;0.63;;
71083;SDS011;58741;52.672;13.548;2023-04-03T07:38:33;0.65;;;0.32;;
71083;SDS011;58741;52.672;13.548;2023-04-03T07:41:00;1.65;;;0.60;;
71083;SDS011;58741;52.672;13.548;2023-04-03T07:43:26;0.30;;;0.30;;
71083;SDS011;58741;52.672;13.548;2023-04-03T07:45:52;0.40;;;0.40;;
71083;SDS011;58741;52.672;13.548;2023-04-03T07:48:22;0.35;;;0.30;;
71083;SDS011;58741;52.672;13.548;2023-04-03T07:50:49;0.73;;;0.45;;
71083;SDS011;58741;52.672;13.548;2023-04-03T07:53:15;1.00;;;0.63;;
71083;SDS011;58741;52.672;13.548;2023-04-03T07:55:41;0.68;;;0.50;;
71083;SDS011;58741;52.672;13.548;2023-04-03T07:58:10;1.55;;;0.88;;
71083;SDS011;58741;52.672;13.548;2023-04-03T08:00:39;1.35;;;0.80;;
71083;SDS011;58741;52.672;13.548;2023-04-03T08:03:05;1.08;;;0.50;;
71083;SDS011;58741;52.672;13.548;2023-04-03T08:05:31;0.22;;;0.22;;
71083;SDS011;58741;52.672;13.548;2023-04-03T08:08:00;0.40;;;0.40;;
71083;SDS011;58741;52.672;13.548;2023-04-03T08:10:26;0.35;;;0.35;;
71083;SDS011;58741;52.672;13.548;2023-04-03T08:12:51;2.28;;;0.63;;
71083;SDS011;58741;52.672;13.548;2023-04-03T08:15:17;4.80;;;0.40;;
71083;SDS011;58741;52.672;13.548;2023-04-03T08:17:43;0.95;;;0.38;;
71083;SDS011;58741;52.672;13.548;2023-04-03T08:20:09;0.75;;;0.45;;
71083;SDS011;58741;52.672;13.548;2023-04-03T08:22:35;1.95;;;0.52;;
71083;SDS011;58741;52.672;13.548;2023-04-03T08:25:01;0.82;;;0.65;;
71083;SDS011;58741;52.672;13.548;2023-04-03T08:27:27;2.88;;;0.35;;
71083;SDS011;58741;52.672;13.548;2023-04-03T08:29:53;0.50;;;0.50;;
71083;SDS011;58741;52.672;13.548;2023-04-03T08:32:19;0.35;;;0.30;;
71083;SDS011;58741;52.672;13.548;2023-04-03T08:34:45;0.80;;;0.55;;
71083;SDS011;58741;52.672;13.548;2023-04-03T08:37:11;0.30;;;0.30;;
71083;SDS011;58741;52.672;13.548;2023-04-03T08:39:36;0.20;;;0.20;;
71083;SDS011;58741;52.672;13.548;2023-04-03T08:42:07;2.03;;;0.43;;
71083;SDS011;58741;52.672;13.548;2023-04-03T08:52:36;0.40;;;0.40;;
71083;SDS011;58741;52.672;13.548;2023-04-03T08:55:06;0.35;;;0.35;;
71083;SDS011;58741;52.672;13.548;2023-04-03T08:57:41;1.17;;;0.52;;
71083;SDS011;58741;52.672;13.548;2023-04-03T09:02:43;0.20;;;0.20;;
71083;SDS011;58741;52.672;13.548;2023-04-03T09:05:18;1.38;;;0.30;;
71083;SDS011;58741;52.672;13.548;2023-04-03T09:08:04;0.55;;;0.30;;
71083;SDS011;58741;52.672;13.548;2023-04-03T09:10:37;1.30;;;0.43;;
71083;SDS011;58741;52.672;13.548;2023-04-03T09:13:06;0.45;;;0.35;;
71083;SDS011;58741;52.672;13.548;2023-04-03T09:15:44;0.38;;;0.38;;
71083;SDS011;58741;52.672;13.548;2023-04-03T09:20:46;0.35;;;0.35;;
71083;SDS011;58741;52.672;13.548;2023-04-03T09:23:28;0.47;;;0.47;;
71083;SDS011;58741;52.672;13.548;2023-04-03T09:26:09;0.22;;;0.22;;
71083;SDS011;58741;52.672;13.548;2023-04-03T09:28:51;0.20;;;0.20;;
71083;SDS011;58741;52.672;13.548;2023-04-03T09:31:20;0.40;;;0.40;;
71083;SDS011;58741;52.672;13.548;2023-04-03T09:33:52;2.80;;;0.70;;
71083;SDS011;58741;52.672;13.548;2023-04-03T09:39:25;1.05;;;0.70;;
71083;SDS011;58741;52.672;13.548;2023-04-03T09:42:03;0.68;;;0.47;;
71083;SDS011;58741;52.672;13.548;2023-04-03T09:44:53;0.30;;;0.30;;
71083;SDS011;58741;52.672;13.548;2023-04-03T09:50:10;4.25;;;0.30;;
71083;SDS011;58741;52.672;13.548;2023-04-03T09:52:47;4.28;;;0.40;;
71083;SDS011;58741;52.672;13.548;2023-04-03T09:55:18;0.40;;;0.40;;
71083;SDS011;58741;52.672;13.548;2023-04-03T09:57:53;0.52;;;0.40;;
71083;SDS011;58741;52.672;13.548;2023-04-03T10:00:23;0.30;;;0.30;;
71083;SDS011;58741;52.672;13.548;2023-04-03T10:02:53;0.25;;;0.22;;
71083;SDS011;58741;52.672;13.548;2023-04-03T10:08:11;1.30;;;0.50;;
71083;SDS011;58741;52.672;13.548;2023-04-03T10:10:43;0.20;;;0.20;;
71083;SDS011;58741;52.672;13.548;2023-04-03T10:13:11;0.30;;;0.30;;
71083;SDS011;58741;52.672;13.548;2023-04-03T10:18:41;0.28;;;0.28;;
71083;SDS011;58741;52.672;13.548;2023-04-03T10:21:15;0.25;;;0.25;;
71083;SDS011;58741;52.672;13.548;2023-04-03T10:24:05;0.40;;;0.35;;
71083;SDS011;58741;52.672;13.548;2023-04-03T10:26:49;1.30;;;0.35;;
71083;SDS011;58741;52.672;13.548;2023-04-03T10:43:26;0.38;;;0.38;;
71083;SDS011;58741;52.672;13.548;2023-04-03T10:46:34;0.63;;;0.47;;
71083;SDS011;58741;52.672;13.548;2023-04-03T10:49:28;0.40;;;0.40;;
71083;SDS011;58741;52.672;13.548;2023-04-03T10:52:24;0.40;;;0.40;;
71083;SDS011;58741;52.672;13.548;2023-04-03T10:57:32;0.20;;;0.20;;
71083;SDS011;58741;52.672;13.548;2023-04-03T11:00:03;0.57;;;0.30;;
71083;SDS011;58741;52.672;13.548;2023-04-03T11:02:37;0.20;;;0.20;;
71083;SDS011;58741;52.672;13.548;2023-04-03T11:07:53;0.22;;;0.22;;
71083;SDS011;58741;52.672;13.548;2023-04-03T11:10:23;0.68;;;0.40;;
71083;SDS011;58741;52.672;13.548;2023-04-03T11:13:14;0.50;;;0.35;;
71083;SDS011;58741;52.672;13.548;2023-04-03T11:15:53;0.40;;;0.40;;
71083;SDS011;58741;52.672;13.548;2023-04-03T11:19:08;4.70;;;0.82;;
71083;SDS011;58741;52.672;13.548;2023-04-03T11:21:16;0.55;;;0.55;;
71083;SDS011;58741;52.672;13.548;2023-04-03T11:23:44;1.75;;;0.98;;
71083;SDS011;58741;52.672;13.548;2023-04-03T11:26:12;2.60;;;1.42;;
71083;SDS011;58741;52.672;13.548;2023-04-03T11:28:40;1.88;;;1.70;;
71083;SDS011;58741;52.672;13.548;2023-04-03T11:31:15;2.47;;;1.60;;
71083;SDS011;58741;52.672;13.548;2023-04-03T11:38:51;4.72;;;2.58;;
71083;SDS011;58741;52.672;13.548;2023-04-03T11:41:30;1.92;;;1.58;;
71083;SDS011;58741;52.672;13.548;2023-04-03T11:44:04;2.58;;;1.52;;
71083;SDS011;58741;52.672;13.548;2023-04-03T11:46:51;1.00;;;0.55;;
71083;SDS011;58741;52.672;13.548;2023-04-03T12:03:31;1.95;;;0.50;;
71083;SDS011;58741;52.672;13.548;2023-04-03T12:13:34;0.20;;;0.20;;
71083;SDS011;58741;52.672;13.548;2023-04-03T12:16:01;0.63;;;0.40;;
71083;SDS011;58741;52.672;13.548;2023-04-03T12:22:04;1.08;;;0.35;;
71083;SDS011;58741;52.672;13.548;2023-04-03T12:26:50;0.38;;;0.30;;
71083;SDS011;58741;52.672;13.548;2023-04-03T12:34:55;0.20;;;0.20;;
71083;SDS011;58741;52.672;13.548;2023-04-03T12:46:45;0.20;;;0.20;;
71083;SDS011;58741;52.672;13.548;2023-04-03T12:51:51;0.45;;;0.45;;
71083;SDS011;58741;52.672;13.548;2023-04-03T12:56:51;1.70;;;0.60;;
71083;SDS011;58741;52.672;13.548;2023-04-03T12:59:33;0.35;;;0.35;;
71083;SDS011;58741;52.672;13.548;2023-04-03T13:01:59;0.20;;;0.20;;
71083;SDS011;58741;52.672;13.548;2023-04-03T13:04:30;0.30;;;0.30;;
71083;SDS011;58741;52.672;13.548;2023-04-03T13:06:56;0.25;;;0.25;;
71083;SDS011;58741;52.672;13.548;2023-04-03T13:09:24;0.50;;;0.30;;
71083;SDS011;58741;52.672;13.548;2023-04-03T13:12:15;0.32;;;0.25;;
71083;SDS011;58741;52.672;13.548;2023-04-03T13:14:51;0.50;;;0.50;;
71083;SDS011;58741;52.672;13.548;2023-04-03T13:17:21;0.35;;;0.22;;
71083;SDS011;58741;52.672;13.548;2023-04-03T13:19:47;0.77;;;0.40;;
71083;SDS011;58741;52.672;13.548;2023-04-03T13:24:48;0.50;;;0.50;;
71083;SDS011;58741;52.672;13.548;2023-04-03T13:27:16;0.20;;;0.20;;
71083;SDS011;58741;52.672;13.548;2023-04-03T13:29:43;0.32;;;0.28;;
71083;SDS011;58741;52.672;13.548;2023-04-03T13:32:17;0.38;;;0.30;;
71083;SDS011;58741;52.672;13.548;2023-04-03T13:34:47;0.30;;;0.30;;
71083;SDS011;58741;52.672;13.548;2023-04-03T13:37:24;0.88;;;0.55;;
71083;SDS011;58741;52.672;13.548;2023-04-03T13:42:37;1.90;;;0.73;;
71083;SDS011;58741;52.672;13.548;2023-04-03T13:45:09;0.65;;;0.40;;
71083;SDS011;58741;52.672;13.548;2023-04-03T13:47:45;0.60;;;0.60;;
71083;SDS011;58741;52.672;13.548;2023-04-03T13:52:44;0.88;;;0.60;;
71083;SDS011;58741;52.672;13.548;2023-04-03T13:58:03;1.98;;;0.63;;
71083;SDS011;58741;52.672;13.548;2023-04-03T14:05:45;0.77;;;0.65;;
71083;SDS011;58741;52.672;13.548;2023-04-03T14:08:11;1.13;;;0.50;;
71083;SDS011;58741;52.672;13.548;2023-04-03T14:10:37;1.20;;;0.70;;
71083;SDS011;58741;52.672;13.548;2023-04-03T14:13:03;0.55;;;0.25;;
71083;SDS011;58741;52.672;13.548;2023-04-03T14:15:30;0.20;;;0.20;;
71083;SDS011;58741;52.672;13.548;2023-04-03T14:17:57;0.45;;;0.45;;
71083;SDS011;58741;52.672;13.548;2023-04-03T14:20:24;2.47;;;0.50;;
71083;SDS011;58741;52.672;13.548;2023-04-03T14:22:51;1.10;;;0.47;;
71083;SDS011;58741;52.672;13.548;2023-04-03T14:25:19;0.73;;;0.40;;
71083;SDS011;58741;52.672;13.548;2023-04-03T14:27:46;0.20;;;0.20;;
71083;SDS011;58741;52.672;13.548;2023-04-03T14:30:24;0.40;;;0.40;;
71083;SDS011;58741;52.672;13.548;2023-04-03T14:32:51;0.52;;;0.45;;
71083;SDS011;58741;52.672;13.548;2023-04-03T14:35:18;0.20;;;0.20;;
71083;SDS011;58741;52.672;13.548;2023-04-03T14:37:44;0.40;;;0.40;;
71083;SDS011;58741;52.672;13.548;2023-04-03T14:40:43;1.50;;;0.45;;
71083;SDS011;58741;52.672;13.548;2023-04-03T14:43:02;0.77;;;0.60;;
71083;SDS011;58741;52.672;13.548;2023-04-03T14:45:27;2.63;;;0.40;;
71083;SDS011;58741;52.672;13.548;2023-04-03T14:47:54;0.70;;;0.57;;
71083;SDS011;58741;52.672;13.548;2023-04-03T14:50:22;1.83;;;0.70;;
71083;SDS011;58741;52.672;13.548;2023-04-03T14:52:51;0.30;;;0.30;;
71083;SDS011;58741;52.672;13.548;2023-04-03T14:55:19;0.47;;;0.47;;
71083;SDS011;58741;52.672;13.548;2023-04-03T14:57:46;0.73;;;0.47;;
71083;SDS011;58741;52.672;13.548;2023-04-03T15:00:13;0.45;;;0.30;;
71083;SDS011;58741;52.672;13.548;2023-04-03T15:02:40;0.50;;;0.40;;
71083;SDS011;58741;52.672;13.548;2023-04-03T15:05:07;0.40;;;0.40;;
71083;SDS011;58741;52.672;13.548;2023-04-03T15:07:35;1.08;;;0.40;;
71083;SDS011;58741;52.672;13.548;2023-04-03T15:10:06;0.50;;;0.47;;
71083;SDS011;58741;52.672;13.548;2023-04-03T15:12:44;0.40;;;0.40;;
71083;SDS011;58741;52.672;13.548;2023-04-03T15:15:12;0.28;;;0.20;;
71083;SDS011;58741;52.672;13.548;2023-04-03T15:17:38;0.40;;;0.40;;
71083;SDS011;58741;52.672;13.548;2023-04-03T15:20:18;0.20;;;0.20;;
71083;SDS011;58741;52.672;13.548;2023-04-03T15:22:46;0.88;;;0.77;;
71083;SDS011;58741;52.672;13.548;2023-04-03T15:25:11;0.75;;;0.73;;
71083;SDS011;58741;52.672;13.548;2023-04-03T15:27:38;0.50;;;0.40;;
71083;SDS011;58741;52.672;13.548;2023-04-03T15:30:04;1.00;;;0.65;;
71083;SDS011;58741;52.672;13.548;2023-04-03T15:32:32;1.00;;;0.88;;
71083;SDS011;58741;52.672;13.548;2023-04-03T15:34:59;3.00;;;0.90;;
71083;SDS011;58741;52.672;13.548;2023-04-03T15:37:25;1.55;;;1.30;;
71083;SDS011;58741;52.672;13.548;2023-04-03T15:39:51;1.00;;;0.90;;
71083;SDS011;58741;52.672;13.548;2023-04-03T15:42:16;1.52;;;1.20;;
71083;SDS011;58741;52.672;13.548;2023-04-03T15:44:42;5.47;;;2.83;;
71083;SDS011;58741;52.672;13.548;2023-04-03T15:47:07;3.35;;;1.70;;
71083;SDS011;58741;52.672;13.548;2023-04-03T15:49:33;2.53;;;1.15;;
71083;SDS011;58741;52.672;13.548;2023-04-03T15:52:00;1.92;;;0.95;;
71083;SDS011;58741;52.672;13.548;2023-04-03T15:54:26;1.13;;;0.75;;
71083;SDS011;58741;52.672;13.548;2023-04-03T15:56:54;0.50;;;0.50;;
71083;SDS011;58741;52.672;13.548;2023-04-03T15:59:20;0.25;;;0.25;;
71083;SDS011;58741;52.672;13.548;2023-04-03T16:01:46;1.48;;;0.75;;
71083;SDS011;58741;52.672;13.548;2023-04-03T16:04:11;1.15;;;1.05;;
71083;SDS011;58741;52.672;13.548;2023-04-03T16:06:37;2.13;;;1.55;;
71083;SDS011;58741;52.672;13.548;2023-04-03T16:09:03;2.45;;;1.40;;
71083;SDS011;58741;52.672;13.548;2023-04-03T16:11:29;1.08;;;0.80;;
71083;SDS011;58741;52.672;13.548;2023-04-03T16:13:55;0.77;;;0.60;;
71083;SDS011;58741;52.672;13.548;2023-04-03T16:16:22;1.48;;;0.75;;
71083;SDS011;58741;52.672;13.548;2023-04-03T16:18:49;0.45;;;0.40;;
71083;SDS011;58741;52.672;13.548;2023-04-03T16:21:15;0.98;;;0.50;;
71083;SDS011;58741;52.672;13.548;2023-04-03T16:23:42;1.33;;;0.50;;
71083;SDS011;58741;52.672;13.548;2023-04-03T16:26:09;3.80;;;0.52;;
71083;SDS011;58741;52.672;13.548;2023-04-03T16:28:35;1.15;;;0.70;;
71083;SDS011;58741;52.672;13.548;2023-04-03T16:31:00;2.67;;;0.70;;
71083;SDS011;58741;52.672;13.548;2023-04-03T16:33:27;0.65;;;0.57;;
71083;SDS011;58741;52.672;13.548;2023-04-03T16:35:53;0.40;;;0.40;;
71083;SDS011;58741;52.672;13.548;2023-04-03T16:38:18;1.73;;;0.80;;
71083;SDS011;58741;52.672;13.548;2023-04-03T16:40:45;3.35;;;0.70;;
71083;SDS011;58741;52.672;13.548;2023-04-03T16:43:10;0.50;;;0.50;;
71083;SDS011;58741;52.672;13.548;2023-04-03T16:45:36;0.65;;;0.50;;
71083;SDS011;58741;52.672;13.548;2023-04-03T16:48:02;1.17;;;0.47;;
71083;SDS011;58741;52.672;13.548;2023-04-03T16:50:28;0.57;;;0.50;;
71083;SDS011;58741;52.672;13.548;2023-04-03T16:52:53;0.45;;;0.38;;
71083;SDS011;58741;52.672;13.548;2023-04-03T16:55:19;0.75;;;0.68;;
71083;SDS011;58741;52.672;13.548;2023-04-03T16:57:45;1.15;;;0.90;;
71083;SDS011;58741;52.672;13.548;2023-04-03T17:00:11;1.05;;;0.68;;